createdAt,value
2018-08-23T00:01:35.724Z,22.34
2018-08-23T00:04:08.148Z,22.35
2018-08-23T00:06:41.652Z,22.37
2018-08-23T00:09:12.329Z,22.33
2018-08-23T00:11:46.578Z,22.33
2018-08-23T00:14:17.852Z,22.31
2018-08-23T00:16:48.869Z,22.31
2018-08-23T00:19:19.518Z,22.29
2018-08-23T00:21:51.321Z,22.28
2018-08-23T00:24:23.293Z,22.25
2018-08-23T00:27:30.165Z,22.24
2018-08-23T00:30:00.852Z,22.24
2018-08-23T00:32:31.526Z,22.22
2018-08-23T00:35:02.240Z,22.25
2018-08-23T00:37:32.983Z,22.23
2018-08-23T00:40:07.661Z,22.22
2018-08-23T00:42:38.429Z,22.17
2018-08-23T00:45:18.001Z,22.14
2018-08-23T00:47:48.706Z,22.07
2018-08-23T00:51:05.247Z,22.00
2018-08-23T00:53:37.121Z,21.91
2018-08-23T00:56:18.484Z,21.90
2018-08-23T00:58:54.307Z,21.86
2018-08-23T01:01:25.006Z,21.82
2018-08-23T01:03:55.646Z,21.84
2018-08-23T01:06:46.141Z,21.80
2018-08-23T01:09:16.716Z,21.79
2018-08-23T01:11:47.428Z,21.74
2018-08-23T01:14:18.039Z,21.69
2018-08-23T01:17:07.841Z,21.63
2018-08-23T01:19:43.729Z,21.56
2018-08-23T01:22:14.362Z,21.51
2018-08-23T01:24:47.807Z,21.50
2018-08-23T01:27:52.638Z,21.48
2018-08-23T01:30:24.500Z,21.44
2018-08-23T01:32:55.232Z,21.43
2018-08-23T01:35:26.372Z,21.41
2018-08-23T01:37:57.062Z,21.38
2018-08-23T01:40:27.759Z,21.34
2018-08-23T01:42:58.471Z,21.30
2018-08-23T01:45:29.171Z,21.32
2018-08-23T01:48:00.843Z,21.29
2018-08-23T01:50:31.507Z,21.26
2018-08-23T01:53:02.232Z,21.22
2018-08-23T01:55:32.937Z,21.21
2018-08-23T01:58:03.616Z,21.21
2018-08-23T02:00:35.667Z,21.20
2018-08-23T02:03:06.525Z,21.17
2018-08-23T02:05:38.938Z,21.14
2018-08-23T02:08:09.622Z,21.09
2018-08-23T02:10:40.276Z,21.05
2018-08-23T02:13:16.288Z,21.00
2018-08-23T02:15:50.988Z,20.97
2018-08-23T02:18:21.664Z,20.95
2018-08-23T02:20:56.376Z,20.95
2018-08-23T02:23:27.078Z,20.90
2018-08-23T02:25:57.780Z,20.87
2018-08-23T02:28:28.468Z,20.86
2018-08-23T02:30:59.111Z,20.87
2018-08-23T02:33:29.754Z,20.89
2018-08-23T02:36:20.664Z,20.93
2018-08-23T02:38:59.941Z,20.95
2018-08-23T02:41:30.960Z,20.92
2018-08-23T02:44:01.681Z,20.89
2018-08-23T02:46:33.784Z,20.87
2018-08-23T02:49:04.458Z,20.82
2018-08-23T02:51:42.609Z,20.76
2018-08-23T02:54:14.442Z,20.68
2018-08-23T02:56:50.249Z,20.63
2018-08-23T02:59:20.939Z,20.60
2018-08-23T03:01:51.935Z,20.52
2018-08-23T03:04:24.609Z,20.45
2018-08-23T03:07:06.342Z,20.35
2018-08-23T03:09:38.938Z,20.25
2018-08-23T03:12:11.966Z,20.15
2018-08-23T03:14:42.625Z,20.05
2018-08-23T03:17:20.693Z,19.99
2018-08-23T03:20:18.806Z,19.91
2018-08-23T03:22:53.735Z,19.81
2018-08-23T03:25:25.572Z,19.76
2018-08-23T03:27:56.566Z,19.68
2018-08-23T03:30:27.249Z,19.62
2018-08-23T03:32:57.936Z,19.57
2018-08-23T03:35:28.603Z,19.52
2018-08-23T03:37:59.270Z,19.46
2018-08-23T03:40:29.926Z,19.39
2018-08-23T03:43:00.613Z,19.35
2018-08-23T03:45:31.285Z,19.32
2018-08-23T03:48:01.926Z,19.30
2018-08-23T03:50:38.032Z,19.25
2018-08-23T03:53:08.688Z,19.21
2018-08-23T03:55:39.343Z,19.15
2018-08-23T03:58:10.031Z,19.10
2018-08-23T04:01:05.833Z,19.07
2018-08-23T04:03:38.752Z,19.00
2018-08-23T04:06:32.163Z,18.95
2018-08-23T04:09:02.924Z,18.92
2018-08-23T04:11:33.612Z,18.88
2018-08-23T04:14:04.297Z,18.87
2018-08-23T04:16:35.207Z,18.83
2018-08-23T04:19:05.947Z,18.82
2018-08-23T04:21:36.636Z,18.79
2018-08-23T04:24:07.317Z,18.76
2018-08-23T04:26:37.970Z,18.75
2018-08-23T04:29:08.641Z,18.72
2018-08-23T04:31:39.289Z,18.71
2018-08-23T04:34:09.956Z,18.71
2018-08-23T04:36:40.682Z,18.70
2018-08-23T04:39:12.424Z,18.69
2018-08-23T04:41:43.834Z,18.68
2018-08-23T04:44:16.456Z,18.68
2018-08-23T04:46:47.128Z,18.68
2018-08-23T04:49:17.800Z,18.69
2018-08-23T04:51:48.538Z,18.69
2018-08-23T04:54:19.133Z,18.70
2018-08-23T04:56:49.827Z,18.69
2018-08-23T04:59:20.487Z,18.69
2018-08-23T05:01:51.147Z,18.71
2018-08-23T05:04:21.851Z,18.71
2018-08-23T05:06:52.521Z,18.73
2018-08-23T05:09:23.149Z,18.76
2018-08-23T05:11:54.461Z,18.77
2018-08-23T05:14:25.138Z,18.78
2018-08-23T05:16:55.858Z,18.85
2018-08-23T05:19:26.525Z,18.87
2018-08-23T05:21:57.240Z,18.86
2018-08-23T05:24:27.869Z,18.87
2018-08-23T05:26:58.572Z,18.94
2018-08-23T05:29:29.196Z,19.01
2018-08-23T05:31:59.882Z,19.01
2018-08-23T05:34:30.502Z,19.02
2018-08-23T05:37:01.212Z,19.08
2018-08-23T05:39:49.187Z,19.15
2018-08-23T05:42:38.518Z,19.21
2018-08-23T05:45:09.190Z,19.28
2018-08-23T05:47:39.847Z,19.33
2018-08-23T05:50:10.537Z,19.36
2018-08-23T05:52:41.252Z,19.43
2018-08-23T05:55:11.935Z,19.52
2018-08-23T05:57:42.616Z,19.59
2018-08-23T06:00:13.321Z,19.72
2018-08-23T06:02:44.036Z,19.81
2018-08-23T06:05:14.690Z,19.93
2018-08-23T06:07:45.346Z,20.00
2018-08-23T06:10:16.011Z,20.16
2018-08-23T06:12:46.669Z,20.24
2018-08-23T06:15:17.371Z,20.35
2018-08-23T06:17:48.133Z,20.45
2018-08-23T06:20:18.881Z,20.55
2018-08-23T06:22:49.648Z,20.66
2018-08-23T06:25:20.500Z,20.81
2018-08-23T06:27:51.171Z,20.85
2018-08-23T06:30:21.832Z,20.95
2018-08-23T06:32:56.640Z,21.10
2018-08-23T06:35:34.710Z,21.16
2018-08-23T06:38:05.859Z,21.31
2018-08-23T06:40:36.484Z,21.39
2018-08-23T06:43:07.198Z,21.47
2018-08-23T06:45:37.896Z,21.56
2018-08-23T06:48:08.560Z,21.61
2018-08-23T06:50:43.234Z,21.71
2018-08-23T06:53:13.912Z,21.88
2018-08-23T06:55:44.554Z,22.01
2018-08-23T06:58:16.129Z,22.18
2018-08-23T07:00:46.830Z,22.37
2018-08-23T07:03:17.472Z,22.56
2018-08-23T07:05:48.164Z,22.70
2018-08-23T07:08:18.845Z,22.81
2018-08-23T07:10:49.624Z,23.04
2018-08-23T07:13:20.265Z,23.20
2018-08-23T07:15:56.011Z,23.40
2018-08-23T07:18:26.682Z,23.42
2018-08-23T07:20:57.360Z,23.54
2018-08-23T07:23:36.579Z,23.78
2018-08-23T07:26:14.087Z,24.01
2018-08-23T07:28:44.745Z,24.21
2018-08-23T07:31:15.409Z,24.38
2018-08-23T07:33:50.347Z,24.52
2018-08-23T07:36:29.591Z,24.60
2018-08-23T07:39:00.342Z,24.74
2018-08-23T07:41:31.013Z,24.88
2018-08-23T07:44:01.721Z,25.17
2018-08-23T07:46:32.390Z,25.38
2018-08-23T07:49:03.131Z,25.15
2018-08-23T07:51:33.772Z,25.06
2018-08-23T07:54:08.494Z,25.07
2018-08-23T07:56:39.179Z,25.32
2018-08-23T07:59:09.862Z,25.54
2018-08-23T08:01:40.620Z,25.78
2018-08-23T08:04:11.648Z,25.98
2018-08-23T08:06:42.301Z,26.23
2018-08-23T08:09:13.115Z,26.40
2018-08-23T08:11:51.294Z,26.51
2018-08-23T08:14:27.118Z,26.46
2018-08-23T08:17:07.985Z,26.43
2018-08-23T08:19:41.065Z,26.68
2018-08-23T08:22:11.842Z,27.02
2018-08-23T08:24:42.505Z,27.08
2018-08-23T08:27:13.242Z,26.98
2018-08-23T08:29:43.925Z,27.29
2018-08-23T08:32:14.659Z,27.55
2018-08-23T08:34:45.398Z,27.73
2018-08-23T08:37:16.074Z,27.25
2018-08-23T08:39:46.720Z,26.86
2018-08-23T08:42:18.497Z,26.97
2018-08-23T08:44:49.312Z,27.23
2018-08-23T08:47:19.993Z,27.78
2018-08-23T08:49:50.695Z,28.04
2018-08-23T08:52:21.341Z,28.20
2018-08-23T08:54:51.981Z,28.28
2018-08-23T08:57:25.012Z,28.21
2018-08-23T08:59:55.711Z,28.33
2018-08-23T09:02:26.349Z,28.98
2018-08-23T09:04:57.116Z,29.21
2018-08-23T09:07:31.623Z,29.31
2018-08-23T09:10:02.285Z,29.46
2018-08-23T09:12:33.472Z,29.37
2018-08-23T09:15:04.196Z,28.86
2018-08-23T09:17:41.780Z,28.97
2018-08-23T09:20:13.606Z,29.01
2018-08-23T09:22:49.340Z,28.88
2018-08-23T09:25:28.660Z,28.72
2018-08-23T09:27:59.309Z,28.86
2018-08-23T09:30:31.390Z,29.04
2018-08-23T09:33:08.186Z,29.03
2018-08-23T09:35:39.043Z,28.61
2018-08-23T09:38:13.513Z,27.82
2018-08-23T09:40:44.123Z,27.96
2018-08-23T09:43:14.842Z,28.46
2018-08-23T09:45:45.612Z,28.85
2018-08-23T09:48:16.300Z,29.05
2018-08-23T09:50:47.018Z,29.09
2018-08-23T09:53:23.768Z,29.41
2018-08-23T09:55:56.139Z,29.85
2018-08-23T09:58:31.999Z,30.08
2018-08-23T10:01:07.871Z,30.36
2018-08-23T10:03:43.681Z,30.32
2018-08-23T10:06:28.763Z,30.18
2018-08-23T10:09:20.635Z,30.28
2018-08-23T10:11:56.558Z,30.60
2018-08-23T10:14:32.515Z,30.18
2018-08-23T10:17:08.446Z,30.05
2018-08-23T10:19:44.315Z,29.63
2018-08-23T10:22:38.235Z,29.51
2018-08-23T10:25:46.816Z,29.01
2018-08-23T10:28:18.930Z,28.48
2018-08-23T10:30:49.865Z,27.98
2018-08-23T10:33:20.645Z,27.99
2018-08-23T10:35:57.007Z,27.85
2018-08-23T10:38:28.903Z,27.92
2018-08-23T10:41:04.995Z,28.17
2018-08-23T10:43:41.024Z,28.49
2018-08-23T10:46:11.716Z,28.55
2018-08-23T10:48:42.403Z,28.98
2018-08-23T10:51:13.100Z,29.55
2018-08-23T10:53:43.842Z,30.00
2018-08-23T10:56:14.556Z,30.08
2018-08-23T10:58:45.202Z,30.41
2018-08-23T11:01:18.863Z,30.63
2018-08-23T11:03:49.508Z,30.41
2018-08-23T11:06:20.347Z,29.91
2018-08-23T11:08:56.013Z,29.50
2018-08-23T11:11:31.711Z,29.46
2018-08-23T11:14:07.975Z,29.35
2018-08-23T11:16:43.950Z,29.75
2018-08-23T11:19:19.849Z,29.86
2018-08-23T11:21:50.589Z,30.14
2018-08-23T11:24:21.212Z,30.49
2018-08-23T11:26:52.024Z,30.04
2018-08-23T11:29:23.334Z,30.01
2018-08-23T11:31:54.017Z,29.76
2018-08-23T11:34:24.740Z,29.82
2018-08-23T11:36:55.455Z,29.94
2018-08-23T11:39:26.061Z,30.16
2018-08-23T11:41:56.703Z,29.74
2018-08-23T11:44:27.407Z,29.36
2018-08-23T11:46:58.107Z,29.43
2018-08-23T11:49:28.708Z,29.75
2018-08-23T11:51:59.466Z,29.86
2018-08-23T11:54:30.164Z,29.72
2018-08-23T11:57:00.849Z,30.26
2018-08-23T11:59:31.531Z,30.45
2018-08-23T12:02:02.212Z,30.82
2018-08-23T12:04:32.889Z,31.11
2018-08-23T12:07:03.688Z,31.40
2018-08-23T12:09:34.457Z,30.99
2018-08-23T12:12:05.480Z,30.92
2018-08-23T12:14:36.202Z,30.77
2018-08-23T12:17:06.990Z,31.35
2018-08-23T12:19:37.689Z,31.85
2018-08-23T12:22:08.431Z,31.85
2018-08-23T12:24:39.071Z,31.33
2018-08-23T12:27:09.743Z,31.41
2018-08-23T12:29:40.432Z,31.25
2018-08-23T12:32:11.140Z,31.03
2018-08-23T12:34:41.855Z,30.77
2018-08-23T12:37:17.773Z,30.37
2018-08-23T12:39:53.702Z,29.55
2018-08-23T12:42:29.477Z,29.86
2018-08-23T12:45:00.096Z,29.89
2018-08-23T12:47:30.754Z,30.43
2018-08-23T12:50:04.912Z,30.51
2018-08-23T12:52:35.577Z,30.90
2018-08-23T12:55:06.483Z,30.92
2018-08-23T12:57:37.148Z,30.47
2018-08-23T13:00:07.877Z,30.78
2018-08-23T13:02:38.603Z,30.65
2018-08-23T13:05:09.264Z,30.53
2018-08-23T13:07:40.024Z,30.54
2018-08-23T13:10:10.733Z,30.84
2018-08-23T13:12:41.382Z,30.98
2018-08-23T13:15:12.074Z,31.05
2018-08-23T13:17:42.766Z,30.43
2018-08-23T13:20:13.488Z,29.85
2018-08-23T13:22:44.165Z,29.69
2018-08-23T13:25:15.365Z,30.04
2018-08-23T13:27:46.056Z,30.59
2018-08-23T13:30:16.872Z,30.70
2018-08-23T13:32:47.557Z,30.13
2018-08-23T13:35:18.320Z,29.94
2018-08-23T13:37:48.995Z,30.21
2018-08-23T13:40:21.530Z,30.01
2018-08-23T13:42:52.317Z,30.27
2018-08-23T13:45:22.922Z,30.25
2018-08-23T13:47:53.592Z,30.14
2018-08-23T13:50:24.257Z,30.43
2018-08-23T13:52:54.915Z,30.83
2018-08-23T13:55:25.591Z,30.73
2018-08-23T13:57:56.372Z,30.68
2018-08-23T14:00:32.316Z,30.21
2018-08-23T14:03:02.985Z,29.74
2018-08-23T14:05:33.685Z,29.70
2018-08-23T14:08:04.459Z,29.64
2018-08-23T14:10:35.339Z,29.62
2018-08-23T14:13:06.223Z,29.87
2018-08-23T14:15:42.008Z,29.92
2018-08-23T14:18:12.775Z,30.20
2018-08-23T14:20:43.506Z,30.34
2018-08-23T14:23:14.223Z,29.96
2018-08-23T14:25:44.875Z,29.95
2018-08-23T14:28:15.469Z,30.10
2018-08-23T14:30:46.124Z,29.81
2018-08-23T14:33:16.795Z,29.94
2018-08-23T14:35:47.524Z,29.80
2018-08-23T14:38:19.034Z,29.67
2018-08-23T14:40:49.697Z,29.45
2018-08-23T14:43:20.351Z,29.13
2018-08-23T14:45:51.057Z,29.17
2018-08-23T14:48:21.785Z,29.54
2018-08-23T14:50:52.775Z,29.85
2018-08-23T14:53:27.207Z,29.98
2018-08-23T14:56:02.972Z,29.77
2018-08-23T14:58:33.696Z,29.62
2018-08-23T15:01:04.415Z,29.59
2018-08-23T15:03:35.104Z,29.49
2018-08-23T15:06:05.752Z,29.49
2018-08-23T15:08:36.490Z,29.44
2018-08-23T15:11:07.190Z,29.61
2018-08-23T15:13:37.884Z,29.36
2018-08-23T15:16:08.701Z,29.02
2018-08-23T15:18:39.337Z,29.06
2018-08-23T15:21:10.026Z,29.36
2018-08-23T15:23:40.990Z,29.37
2018-08-23T15:26:11.837Z,29.12
2018-08-23T15:28:42.615Z,29.05
2018-08-23T15:31:13.368Z,29.22
2018-08-23T15:33:44.101Z,29.48
2018-08-23T15:36:14.789Z,29.57
2018-08-23T15:38:45.526Z,29.72
2018-08-23T15:41:16.356Z,29.71
2018-08-23T15:43:47.040Z,29.68
2018-08-23T15:46:17.791Z,29.66
2018-08-23T15:48:48.560Z,29.60
2018-08-23T15:51:19.345Z,29.55
2018-08-23T15:53:50.023Z,29.48
2018-08-23T15:56:20.985Z,29.37
2018-08-23T15:58:51.624Z,29.12
2018-08-23T16:01:22.347Z,29.14
2018-08-23T16:03:52.950Z,29.13
2018-08-23T16:06:23.750Z,29.03
2018-08-23T16:08:54.479Z,28.85
2018-08-23T16:11:26.054Z,28.37
2018-08-23T16:13:56.822Z,28.16
2018-08-23T16:16:32.796Z,28.34
2018-08-23T16:19:08.806Z,28.22
2018-08-23T16:21:40.380Z,28.00
2018-08-23T16:24:12.205Z,27.73
2018-08-23T16:26:48.116Z,27.54
2018-08-23T16:29:18.873Z,27.33
2018-08-23T16:31:49.600Z,27.27
2018-08-23T16:34:20.558Z,27.22
2018-08-23T16:36:51.360Z,27.04
2018-08-23T16:39:22.183Z,26.77
2018-08-23T16:41:52.955Z,26.72
2018-08-23T16:44:23.589Z,26.71
2018-08-23T16:46:54.257Z,26.64
2018-08-23T16:49:24.945Z,26.63
2018-08-23T16:51:55.587Z,26.63
2018-08-23T16:54:26.300Z,26.62
2018-08-23T16:56:56.954Z,26.65
2018-08-23T16:59:27.619Z,26.67
2018-08-23T17:01:58.310Z,26.53
2018-08-23T17:04:34.146Z,26.49
2018-08-23T17:07:04.776Z,26.43
2018-08-23T17:09:35.502Z,26.28
2018-08-23T17:12:06.349Z,26.17
2018-08-23T17:14:37.065Z,26.02
2018-08-23T17:17:12.930Z,25.97
2018-08-23T17:19:43.592Z,25.91
2018-08-23T17:22:14.855Z,25.73
2018-08-23T17:24:45.483Z,25.71
2018-08-23T17:27:16.242Z,25.71
2018-08-23T17:29:46.967Z,25.67
2018-08-23T17:32:17.608Z,25.56
2018-08-23T17:34:48.307Z,25.50
2018-08-23T17:37:18.967Z,25.41
2018-08-23T17:39:49.659Z,25.33
2018-08-23T17:42:20.413Z,25.28
2018-08-23T17:44:51.150Z,25.20
2018-08-23T17:47:21.923Z,25.05
2018-08-23T17:49:52.565Z,25.02
2018-08-23T17:52:23.383Z,24.95
2018-08-23T17:54:54.076Z,24.77
2018-08-23T17:57:24.716Z,24.69
2018-08-23T17:59:55.431Z,24.57
2018-08-23T18:02:26.188Z,24.50
2018-08-23T18:04:57.266Z,24.37
2018-08-23T18:07:28.062Z,24.31
2018-08-23T18:09:58.765Z,24.18
2018-08-23T18:12:29.561Z,24.21
2018-08-23T18:15:00.444Z,24.09
2018-08-23T18:17:31.231Z,24.00
2018-08-23T18:20:02.087Z,23.96
2018-08-23T18:22:33.397Z,23.91
2018-08-23T18:25:04.569Z,23.82
2018-08-23T18:27:35.605Z,23.72
2018-08-23T18:30:06.750Z,23.69
2018-08-23T18:32:37.548Z,23.58
2018-08-23T18:35:08.333Z,23.50
2018-08-23T18:37:39.168Z,23.46
2018-08-23T18:40:09.801Z,23.45
2018-08-23T18:42:40.574Z,23.36
2018-08-23T18:45:11.403Z,23.32
2018-08-23T18:47:42.218Z,23.25
2018-08-23T18:50:13.180Z,23.26
2018-08-23T18:52:43.879Z,23.19
2018-08-23T18:55:14.682Z,23.17
2018-08-23T18:57:45.443Z,23.12
2018-08-23T19:00:17.780Z,23.09
2018-08-23T19:02:48.461Z,23.02
2018-08-23T19:05:19.168Z,22.99
2018-08-23T19:07:49.924Z,22.96
2018-08-23T19:10:20.771Z,22.87
2018-08-23T19:12:51.491Z,22.80
2018-08-23T19:15:27.433Z,22.81
2018-08-23T19:17:58.239Z,22.73
2018-08-23T19:20:29.041Z,22.69
2018-08-23T19:22:59.804Z,22.69
2018-08-23T19:25:30.667Z,22.50
2018-08-23T19:28:01.366Z,22.50
2018-08-23T19:30:32.139Z,22.43
2018-08-23T19:33:03.402Z,22.42
2018-08-23T19:35:33.739Z,22.39
2018-08-23T19:38:04.473Z,22.45
2018-08-23T19:40:35.287Z,22.51
2018-08-23T19:43:06.343Z,22.32
2018-08-23T19:45:42.339Z,22.43
2018-08-23T19:48:13.259Z,22.30
2018-08-23T19:50:43.981Z,22.32
2018-08-23T19:53:14.880Z,22.16
2018-08-23T19:55:45.790Z,22.05
2018-08-23T19:58:16.448Z,22.08
2018-08-23T20:00:47.391Z,22.06
2018-08-23T20:03:18.108Z,22.11
2018-08-23T20:05:48.758Z,22.02
2018-08-23T20:08:19.658Z,21.99
2018-08-23T20:10:50.344Z,22.06
2018-08-23T20:13:21.051Z,22.08
2018-08-23T20:15:51.757Z,21.96
2018-08-23T20:18:22.520Z,21.91
2018-08-23T20:20:53.199Z,21.89
2018-08-23T20:23:23.991Z,21.76
2018-08-23T20:25:54.908Z,21.84
2018-08-23T20:28:25.813Z,21.81
2018-08-23T20:30:56.505Z,21.78
2018-08-23T20:33:27.620Z,21.83
2018-08-23T20:35:58.546Z,21.80
2018-08-23T20:38:29.466Z,21.83
2018-08-23T20:41:00.553Z,21.83
2018-08-23T20:43:31.167Z,21.76
2018-08-23T20:46:01.788Z,21.69
2018-08-23T20:48:32.511Z,21.73
2018-08-23T20:51:03.197Z,21.67
2018-08-23T20:53:33.808Z,21.63
2018-08-23T20:56:04.897Z,21.78
2018-08-23T20:58:35.594Z,21.75
2018-08-23T21:01:06.274Z,21.65
2018-08-23T21:03:36.900Z,21.59
2018-08-23T21:06:07.599Z,21.56
2018-08-23T21:08:38.218Z,21.54
2018-08-23T21:11:08.930Z,21.55
2018-08-23T21:13:39.642Z,21.48
2018-08-23T21:16:10.389Z,21.48
2018-08-23T21:18:41.030Z,21.45
2018-08-23T21:21:11.708Z,21.32
2018-08-23T21:23:42.324Z,21.29
2018-08-23T21:26:12.991Z,21.31
2018-08-23T21:28:43.726Z,21.34
2018-08-23T21:31:14.423Z,21.38
2018-08-23T21:33:45.066Z,21.22
2018-08-23T21:36:15.696Z,21.27
2018-08-23T21:38:46.922Z,21.19
2018-08-23T21:41:17.576Z,21.20
2018-08-23T21:43:48.217Z,21.24
2018-08-23T21:46:18.899Z,21.33
2018-08-23T21:48:49.506Z,21.33
2018-08-23T21:51:20.141Z,21.28
2018-08-23T21:53:50.845Z,21.31
2018-08-23T21:56:21.510Z,21.29
2018-08-23T21:58:52.237Z,21.32
2018-08-23T22:01:22.895Z,21.33
2018-08-23T22:03:53.551Z,21.33
2018-08-23T22:06:24.154Z,21.33
2018-08-23T22:08:54.784Z,21.22
2018-08-23T22:11:25.403Z,21.29
2018-08-23T22:13:56.069Z,21.27
2018-08-23T22:16:27.062Z,21.29
2018-08-23T22:18:57.702Z,21.29
2018-08-23T22:21:28.352Z,21.26
2018-08-23T22:23:59.009Z,21.29
2018-08-23T22:26:29.693Z,21.24
2018-08-23T22:29:00.342Z,21.16
2018-08-23T22:31:31.027Z,21.17
2018-08-23T22:34:01.697Z,21.14
2018-08-23T22:36:32.365Z,21.19
2018-08-23T22:39:03.096Z,21.11
2018-08-23T22:41:33.693Z,21.08
2018-08-23T22:44:04.393Z,21.04
2018-08-23T22:46:35.190Z,21.00
2018-08-23T22:49:05.904Z,21.03
2018-08-23T22:51:36.541Z,20.95
2018-08-23T22:54:07.310Z,21.01
2018-08-23T22:56:37.916Z,21.05
2018-08-23T22:59:08.534Z,21.10
2018-08-23T23:01:39.720Z,21.13
2018-08-23T23:04:15.478Z,21.12
2018-08-23T23:06:46.210Z,20.98
2018-08-23T23:09:16.916Z,20.86
2018-08-23T23:11:50.401Z,20.81
2018-08-23T23:14:21.181Z,20.73
2018-08-23T23:16:55.784Z,20.64
2018-08-23T23:19:26.728Z,20.61
2018-08-23T23:21:57.355Z,20.63
2018-08-23T23:24:33.160Z,20.61
2018-08-23T23:27:03.771Z,20.59
2018-08-23T23:29:34.400Z,20.50
2018-08-23T23:32:05.306Z,20.52
2018-08-23T23:34:35.919Z,20.51
2018-08-23T23:37:07.712Z,20.56
2018-08-23T23:39:38.427Z,20.51
2018-08-23T23:42:40.109Z,20.53
2018-08-23T23:45:10.738Z,20.58
2018-08-23T23:47:41.443Z,20.64
2018-08-23T23:50:12.085Z,20.65
2018-08-23T23:52:42.687Z,20.69
2018-08-23T23:55:13.361Z,20.64
2018-08-23T23:57:43.996Z,20.55
